This is the latest recevied weather packets stored in our database for station/object KO5MO-11. If no packets are shown the sender has not sent any weather packets the latest 10 day(s).
| Time | Temp. | Humidity | Pressure | Rain* | Wind** | Luminosity | Snow |
|---|---|---|---|---|---|---|---|
| 1777638655 | 26.11° C | 33% | 1008.5 hPa | - | - | 793 W/m² | - |
| 1777638055 | 25° C | 36% | 1008.4 hPa | - | - | 777 W/m² | - |
| 1777637455 | 24.44° C | 37% | 1008.3 hPa | - | - | 765 W/m² | - |
| 1777636855 | 24.44° C | 34% | 1008.1 hPa | - | - | 765 W/m² | - |
| 1777636255 | 25.56° C | 35% | 1008 hPa | - | - | 789 W/m² | - |
| 1777635655 | 24.44° C | 36% | 1007.9 hPa | - | - | 761 W/m² | - |
| 1777635055 | 24.44° C | 37% | 1007.9 hPa | - | - | 769 W/m² | - |
| 1777634455 | 24.44° C | 37% | 1007.9 hPa | - | - | 763 W/m² | - |
| 1777633855 | 25.56° C | 34% | 1007.8 hPa | - | - | 786 W/m² | - |
| 1777633255 | 25.56° C | 36% | 1007.9 hPa | - | - | 780 W/m² | - |
| 1777632655 | 24.44° C | 37% | 1007.8 hPa | - | - | 769 W/m² | - |
| 1777632055 | 24.44° C | 36% | 1007.5 hPa | - | - | 764 W/m² | - |
| 1777631455 | 25.56° C | 35% | 1007.4 hPa | - | - | 789 W/m² | - |
| 1777630855 | 24.44° C | 36% | 1007.3 hPa | - | - | 766 W/m² | - |
| 1777630255 | 25° C | 38% | 1007.2 hPa | - | - | 773 W/m² | - |
| 1777629655 | 26.11° C | 34% | 1007.2 hPa | - | - | 797 W/m² | - |
| 1777629055 | 25° C | 37% | 1007 hPa | - | - | 771 W/m² | - |
| 1777628455 | 24.44° C | 37% | 1007 hPa | - | - | 760 W/m² | - |
| 1777627855 | 24.44° C | 36% | 1007 hPa | - | - | 766 W/m² | - |
| 1777627255 | 25° C | 36% | 1007 hPa | - | - | 776 W/m² | - |
| 1777626655 | 26.67° C | 34% | 1007 hPa | - | - | 802 W/m² | - |
| 1777626055 | 24.44° C | 38% | 1007 hPa | - | - | 760 W/m² | - |
| 1777625456 | 24.44° C | 37% | 1007 hPa | - | - | 761 W/m² | - |
| 1777624855 | 26.67° C | 34% | 1007.1 hPa | - | - | 801 W/m² | - |
| 1777624255 | 23.89° C | 38% | 1006.9 hPa | - | - | 757 W/m² | - |
* Rain since midnight (hover to see other rain measurements)
** Current wind speed in m/s (hover to see current wind gust speed)